Time;durP1;ratioP1;P1;durP2;ratioP2;P2;SDS_P1;SDS_P2;PMS_P1;PMS_P2;Temp;Humidity;BMP_temperature;BMP_pressure;BME280_temperature;BME280_humidity;BME280_pressure;Samples;Min_cycle;Max_cycle;Signal;HPM_P1;HPM_P2
2022/05/15 00:03:00;;;;;;;18.20;7.58;;;;;;;12.87;68.16;98987.48;2135042;82;21047;-86
2022/05/15 00:06:01;;;;;;;17.37;6.28;;;;;;;12.80;68.00;98995.80;2141022;82;20981;-91
2022/05/15 00:09:03;;;;;;;9.35;6.65;;;;;;;12.80;68.00;98995.80;2143637;82;21026;-89
2022/05/15 00:12:05;;;;;;;13.60;5.60;;;;;;;12.72;68.78;98992.81;2141404;82;21125;-89
2022/05/15 00:15:06;;;;;;;7.75;5.70;;;;;;;12.72;68.78;98992.81;2144337;82;21057;-91
2022/05/15 00:18:08;;;;;;;10.35;6.17;;;;;;;12.66;68.60;98994.05;2138735;82;21635;-84
2022/05/15 00:21:10;;;;;;;13.43;6.60;;;;;;;12.62;69.10;98987.05;2145459;82;21427;-89
2022/05/15 00:24:11;;;;;;;17.92;7.12;;;;;;;12.61;68.93;98992.45;2149609;82;21077;-88
2022/05/15 00:27:13;;;;;;;15.88;8.05;;;;;;;12.61;69.33;98993.77;2155847;82;21056;-89
2022/05/15 00:30:15;;;;;;;9.63;6.55;;;;;;;12.64;69.04;98988.17;2136862;82;21025;-88
2022/05/15 00:33:17;;;;;;;16.40;7.90;;;;;;;12.64;69.07;98992.11;2143884;82;21155;-90
2022/05/15 00:36:18;;;;;;;14.50;7.28;;;;;;;12.64;69.27;98992.11;2137239;82;21127;-89
2022/05/15 00:39:20;;;;;;;14.38;7.70;;;;;;;12.43;69.47;98992.36;2139823;82;21120;-91
2022/05/15 00:42:22;;;;;;;14.98;7.65;;;;;;;12.43;69.47;98992.36;2147787;82;21116;-90
2022/05/15 00:45:24;;;;;;;15.72;7.95;;;;;;;12.50;69.75;98995.08;2182287;80;20958;-90
2022/05/15 00:48:25;;;;;;;13.10;7.35;;;;;;;12.51;69.67;98998.83;2174308;80;21512;-90
2022/05/15 00:51:27;;;;;;;13.55;7.72;;;;;;;12.55;69.67;98999.78;2133890;83;21361;-88
2022/05/15 00:54:29;;;;;;;14.47;7.17;;;;;;;12.53;69.90;99008.67;2092975;83;21048;-90
2022/05/15 00:57:33;;;;;;;13.15;7.03;;;;;;;12.50;69.93;98997.20;2135647;82;21145;-87
2022/05/15 01:00:34;;;;;;;14.80;8.48;;;;;;;12.53;69.97;99002.61;2151133;82;21080;-90
2022/05/15 01:03:35;;;;;;;12.30;7.80;;;;;;;12.55;69.88;98994.53;2114894;83;21026;-89
2022/05/15 01:06:37;;;;;;;12.40;7.15;;;;;;;12.52;70.20;98998.32;2107917;83;21105;-89
2022/05/15 01:09:38;;;;;;;11.68;8.28;;;;;;;12.53;70.28;98991.59;2101796;83;21128;-89
2022/05/15 01:12:40;;;;;;;15.72;8.53;;;;;;;12.50;70.40;98995.88;2146159;82;21079;-88
2022/05/15 01:15:42;;;;;;;14.68;7.67;;;;;;;12.56;70.30;98995.66;2163038;82;21064;-87
2022/05/15 01:18:43;;;;;;;16.70;7.50;;;;;;;12.59;70.61;98997.09;2187506;80;21025;-88
2022/05/15 01:21:46;;;;;;;13.18;7.20;;;;;;;12.59;70.61;98997.09;2129353;83;21001;-89
2022/05/15 01:24:48;;;;;;;14.60;7.10;;;;;;;12.60;70.70;98997.40;2110463;83;21001;-89
2022/05/15 01:27:49;;;;;;;13.60;9.00;;;;;;;12.59;70.77;98995.28;2151729;82;21086;-88
2022/05/15 01:30:51;;;;;;;9.93;7.58;;;;;;;12.67;70.86;98996.98;2118828;83;21577;-88
2022/05/15 01:33:53;;;;;;;16.48;8.65;;;;;;;12.69;70.95;98997.60;2100441;83;21021;-88
2022/05/15 01:36:55;;;;;;;12.33;7.47;;;;;;;12.66;70.63;98998.80;2143949;82;21523;-88
2022/05/15 01:39:57;;;;;;;10.05;7.45;;;;;;;12.64;70.75;99002.62;2121826;83;21184;-88
2022/05/15 01:42:59;;;;;;;14.28;7.05;;;;;;;12.63;70.94;99004.43;2111811;83;21155;-88
2022/05/15 01:46:00;;;;;;;14.23;8.15;;;;;;;12.64;71.01;99005.24;2142120;82;21193;-88
2022/05/15 01:49:06;;;;;;;14.00;8.33;;;;;;;12.69;71.05;99006.80;2146783;82;21548;-90
2022/05/15 01:52:06;;;;;;;15.45;7.92;;;;;;;12.73;71.06;99004.94;2160024;82;21070;-91
2022/05/15 01:55:07;;;;;;;12.18;6.97;;;;;;;12.71;71.07;99006.11;2139718;82;21021;-89
2022/05/15 01:58:10;;;;;;;12.47;7.55;;;;;;;12.75;71.49;99010.00;2136480;82;21133;-90
2022/05/15 02:01:12;;;;;;;14.63;7.58;;;;;;;12.77;71.29;99010.13;2135080;82;21111;-90
2022/05/15 02:04:14;;;;;;;16.17;7.20;;;;;;;12.72;71.25;99007.26;2150844;82;21112;-90
2022/05/15 02:07:16;;;;;;;14.18;7.50;;;;;;;12.70;71.13;99003.98;2135081;82;21020;-90
2022/05/15 02:10:17;;;;;;;13.98;7.45;;;;;;;12.67;71.29;99001.73;2150826;82;21114;-91
2022/05/15 02:13:19;;;;;;;13.83;7.45;;;;;;;12.67;71.73;99008.80;2142556;82;21124;-89
2022/05/15 02:16:21;;;;;;;9.95;7.65;;;;;;;12.73;71.94;99008.88;2146739;82;21511;-90
2022/05/15 02:19:22;;;;;;;11.73;7.25;;;;;;;12.72;71.69;99006.45;2132143;82;21036;-89
2022/05/15 02:22:24;;;;;;;14.20;8.88;;;;;;;12.71;71.87;99005.63;2150004;82;21551;-89
2022/05/15 02:25:27;;;;;;;19.40;8.68;;;;;;;12.72;72.13;99005.94;2139450;82;21181;-89
2022/05/15 02:28:29;;;;;;;18.62;7.85;;;;;;;12.75;72.07;99004.75;2156281;82;21539;-88
2022/05/15 02:31:31;;;;;;;14.47;7.22;;;;;;;12.73;71.93;99006.25;2140232;82;21055;-89
2022/05/15 02:34:32;;;;;;;15.45;7.95;;;;;;;12.70;72.07;99009.73;2137522;82;21039;-89
2022/05/15 02:37:34;;;;;;;13.35;7.00;;;;;;;12.61;72.49;99013.47;2148421;82;21033;-84
2022/05/15 02:40:35;;;;;;;22.05;7.92;;;;;;;12.51;72.73;99025.09;2134646;82;21048;-87
2022/05/15 02:43:37;;;;;;;12.33;7.25;;;;;;;12.47;72.73;99015.15;2153500;82;21069;-88
2022/05/15 02:46:39;;;;;;;18.45;7.80;;;;;;;12.50;73.21;99015.58;2140357;82;21036;-90
2022/05/15 02:53:01;;;;;;;12.28;6.80;;;;;;;12.52;72.60;99021.96;2143782;82;21016;-88
2022/05/15 02:56:02;;;;;;;14.75;7.40;;;;;;;12.55;72.50;99026.05;2140906;82;21040;-88
2022/05/15 02:59:04;;;;;;;14.15;7.53;;;;;;;12.49;72.66;99025.78;2154191;82;21051;-90
2022/05/15 03:02:06;;;;;;;14.43;7.58;;;;;;;12.45;73.22;99023.22;2139136;82;21037;-89
2022/05/15 03:05:07;;;;;;;14.68;7.50;;;;;;;12.47;73.00;99023.03;2139646;82;21516;-89
2022/05/15 03:08:09;;;;;;;11.60;7.45;;;;;;;12.53;73.21;99028.37;2139266;82;20985;-89
2022/05/15 03:11:11;;;;;;;15.98;7.72;;;;;;;12.56;73.43;99032.43;2147785;82;20997;-88
2022/05/15 03:14:13;;;;;;;14.87;8.38;;;;;;;12.50;73.36;99033.16;2149865;82;21151;-89
2022/05/15 03:17:16;;;;;;;14.98;7.95;;;;;;;12.50;73.56;99033.97;2148798;82;21089;-90
2022/05/15 03:20:18;;;;;;;15.78;8.35;;;;;;;12.50;73.53;99035.78;2137897;82;21091;-89
2022/05/15 03:23:20;;;;;;;18.55;7.95;;;;;;;12.45;73.66;99031.09;2132518;82;21000;-85
2022/05/15 03:26:21;;;;;;;14.70;8.28;;;;;;;12.42;73.86;99039.82;2148908;82;21118;-90
2022/05/15 03:29:23;;;;;;;20.35;8.65;;;;;;;12.42;73.92;99045.88;2134664;82;21005;-84
2022/05/15 03:32:25;;;;;;;16.60;8.43;;;;;;;12.47;73.95;99046.16;2153810;82;20985;-84
2022/05/15 03:35:27;;;;;;;19.02;9.35;;;;;;;12.54;74.09;99054.13;2147631;82;21025;-86
2022/05/15 03:38:29;;;;;;;12.28;7.83;;;;;;;12.45;74.10;99040.79;2142744;82;21542;-88
2022/05/15 03:41:31;;;;;;;12.25;7.92;;;;;;;12.45;74.10;99040.79;2144352;82;21561;-88
2022/05/15 03:44:33;;;;;;;12.73;7.80;;;;;;;12.50;74.03;99054.98;2138300;82;21584;-88
2022/05/15 03:47:36;;;;;;;11.30;7.95;;;;;;;12.49;73.99;99053.86;2143534;82;21629;-90
2022/05/15 03:50:38;;;;;;;17.20;8.50;;;;;;;12.61;74.35;99065.52;2154344;82;21120;-90
2022/05/15 03:53:40;;;;;;;15.30;8.20;;;;;;;12.61;74.35;99065.52;2150873;82;21564;-91
2022/05/15 03:56:50;;;;;;;13.68;8.50;;;;;;;12.66;74.18;99061.84;2152510;82;21053;-89
2022/05/15 03:59:52;;;;;;;17.32;8.60;;;;;;;12.74;73.92;99064.87;2151607;82;21097;-90
2022/05/15 04:02:54;;;;;;;14.95;8.10;;;;;;;12.88;73.99;99075.83;2133703;82;21105;-90
2022/05/15 04:05:55;;;;;;;13.48;8.80;;;;;;;12.91;73.47;99075.98;2140819;82;21076;-90
2022/05/15 04:08:57;;;;;;;13.75;7.72;;;;;;;12.90;73.51;99081.73;2144525;82;21077;-91
2022/05/15 04:11:58;;;;;;;13.32;7.62;;;;;;;13.01;73.28;99075.98;2139579;82;21132;-89
2022/05/15 04:15:00;;;;;;;12.95;7.78;;;;;;;13.14;73.20;99090.27;2139090;82;21078;-89
2022/05/15 04:18:02;;;;;;;14.95;7.53;;;;;;;13.15;72.84;99083.50;2152158;82;21129;-89
2022/05/15 04:21:03;;;;;;;11.35;8.15;;;;;;;13.18;72.74;99091.53;2138195;82;21480;-89
2022/05/15 04:24:05;;;;;;;12.85;7.95;;;;;;;13.43;72.76;99090.17;2141366;82;20991;-89
2022/05/15 04:27:07;;;;;;;11.45;7.60;;;;;;;13.72;72.29;99087.09;2137136;82;21060;-89
2022/05/15 04:30:08;;;;;;;14.38;8.35;;;;;;;13.97;71.58;99089.59;2157573;82;21117;-89
2022/05/15 04:33:10;;;;;;;13.65;7.92;;;;;;;14.15;70.89;99087.79;2134104;82;21120;-89
2022/05/15 04:36:11;;;;;;;14.80;7.45;;;;;;;14.25;70.14;99096.15;2143768;82;21113;-88
2022/05/15 04:39:13;;;;;;;15.50;7.20;;;;;;;14.50;69.71;99092.58;2131741;83;21008;-90
2022/05/15 04:42:16;;;;;;;22.80;7.83;;;;;;;14.77;69.03;99092.19;2138634;82;21089;-87
2022/05/15 04:45:17;;;;;;;15.08;7.45;;;;;;;15.11;67.65;99096.56;2146050;82;21664;-88
2022/05/15 04:48:19;;;;;;;14.28;7.37;;;;;;;15.76;66.54;99094.23;2153211;82;21017;-90
2022/05/15 04:51:21;;;;;;;14.50;7.47;;;;;;;16.19;64.20;99100.70;2143187;82;21080;-86
2022/05/15 04:54:22;;;;;;;15.00;7.47;;;;;;;16.32;64.57;99101.67;2142996;82;21156;-85
2022/05/15 04:57:24;;;;;;;10.80;7.08;;;;;;;16.77;62.50;99106.55;2149249;82;21152;-86
2022/05/15 05:00:26;;;;;;;9.28;6.55;;;;;;;17.31;61.74;99109.22;2151962;82;21125;-87
2022/05/15 05:03:27;;;;;;;12.45;7.08;;;;;;;17.69;60.26;99109.16;2147987;82;21079;-88
2022/05/15 05:06:29;;;;;;;12.82;5.75;;;;;;;18.05;59.49;99101.03;2146128;82;21053;-87
2022/05/15 05:09:31;;;;;;;14.95;6.10;;;;;;;18.42;58.51;99104.02;2145720;82;21624;-89
2022/05/15 05:12:32;;;;;;;10.08;5.22;;;;;;;18.48;55.67;99111.09;2152591;82;21089;-89
2022/05/15 05:15:37;;;;;;;13.45;6.05;;;;;;;18.40;55.57;99116.69;2149076;82;21594;-88
2022/05/15 05:18:39;;;;;;;8.35;5.12;;;;;;;18.39;56.05;99109.77;2148164;82;21106;-88
2022/05/15 05:21:40;;;;;;;15.40;4.65;;;;;;;18.46;54.61;99118.95;2139206;82;21060;-82
2022/05/15 05:24:42;;;;;;;9.90;4.42;;;;;;;18.38;54.06;99122.73;2145482;82;21056;-86
2022/05/15 05:27:45;;;;;;;10.55;5.17;;;;;;;18.45;54.20;99129.27;2159328;82;21059;-86
2022/05/15 05:30:46;;;;;;;11.22;3.98;;;;;;;18.59;53.36;99124.64;2140833;82;21132;-87
2022/05/15 05:33:48;;;;;;;7.55;3.98;;;;;;;18.66;52.43;99134.19;2144496;82;21573;-88
2022/05/15 05:36:50;;;;;;;7.90;4.20;;;;;;;18.61;52.62;99128.69;2153180;82;22172;-88
2022/05/15 05:39:51;;;;;;;5.67;3.52;;;;;;;18.60;51.77;99127.07;2131720;82;21116;-89
2022/05/15 05:42:53;;;;;;;4.78;2.87;;;;;;;18.52;52.00;99130.53;2149421;82;21005;-89
2022/05/15 05:45:55;;;;;;;5.20;2.75;;;;;;;18.71;51.15;99135.64;2132959;82;21024;-88
2022/05/15 05:48:56;;;;;;;7.35;3.20;;;;;;;18.53;50.84;99132.15;2142644;82;21579;-87
2022/05/15 05:51:58;;;;;;;5.22;2.90;;;;;;;18.52;50.26;99135.31;2141421;82;21080;-87
2022/05/15 05:55:00;;;;;;;5.75;3.05;;;;;;;18.35;50.58;99137.73;2144829;82;21028;-84
2022/05/15 05:58:02;;;;;;;5.65;3.12;;;;;;;18.26;50.99;99144.34;2132765;82;21084;-84
2022/05/15 06:01:06;;;;;;;8.30;3.10;;;;;;;18.31;51.15;99135.75;2156466;82;21118;-87
2022/05/15 06:07:26;;;;;;;8.25;3.33;;;;;;;18.14;50.80;99134.17;2086760;85;21160;-88
2022/05/15 06:10:28;;;;;;;9.98;4.00;;;;;;;18.16;51.31;99130.27;2070554;85;21161;-89
2022/05/15 06:13:30;;;;;;;5.55;2.75;;;;;;;18.38;51.40;99137.83;2078621;85;21093;-87
2022/05/15 06:16:32;;;;;;;9.28;4.10;;;;;;;18.33;50.58;99136.34;2078006;85;21001;-86
2022/05/15 06:19:34;;;;;;;8.00;3.83;;;;;;;18.35;50.89;99137.73;2068781;85;21063;-87
2022/05/15 06:22:36;;;;;;;11.30;5.90;;;;;;;18.27;51.00;99139.85;2053692;85;20989;-86
2022/05/15 06:25:37;;;;;;;10.30;4.12;;;;;;;18.17;51.02;99141.16;2068676;85;21626;-85
2022/05/15 06:28:39;;;;;;;6.55;3.17;;;;;;;18.18;51.28;99145.43;2068374;85;21635;-84
2022/05/15 06:31:41;;;;;;;5.45;3.05;;;;;;;18.37;50.72;99142.81;2076333;85;21069;-85
2022/05/15 06:34:43;;;;;;;7.50;3.08;;;;;;;18.35;49.88;99147.52;2067623;85;21456;-86
2022/05/15 06:37:44;;;;;;;4.12;2.10;;;;;;;18.28;51.36;99156.86;2066147;85;21025;-87
2022/05/15 06:40:46;;;;;;;5.12;2.52;;;;;;;18.27;50.70;99153.91;2099201;81;21034;-85
2022/05/15 06:43:48;;;;;;;7.97;2.47;;;;;;;18.27;51.16;99147.80;2187820;81;21121;-88
2022/05/15 06:46:49;;;;;;;6.40;2.30;;;;;;;18.19;50.94;99156.33;2190928;80;21112;-87
2022/05/15 06:49:52;;;;;;;4.45;1.70;;;;;;;18.27;50.94;99155.75;2181352;80;21073;-87
2022/05/15 06:52:54;;;;;;;6.42;2.33;;;;;;;18.08;50.14;99158.88;2128419;83;21136;-85
2022/05/15 06:59:16;;;;;;;5.25;1.65;;;;;;;18.06;52.23;99153.80;2096286;83;21021;-87
2022/05/15 07:02:18;;;;;;;5.53;2.15;;;;;;;18.15;50.46;99156.99;2130500;82;21086;-86
2022/05/15 07:05:20;;;;;;;4.70;1.85;;;;;;;18.18;51.13;99153.89;2156267;82;21596;-85
2022/05/15 07:08:22;;;;;;;4.83;1.40;;;;;;;17.93;49.40;99153.93;2155892;82;21004;-87
2022/05/15 07:11:23;;;;;;;9.10;2.10;;;;;;;17.79;49.99;99146.59;2094059;83;21034;-86
2022/05/15 07:14:25;;;;;;;4.50;2.20;;;;;;;17.72;49.92;99149.78;2130623;82;21074;-88
2022/05/15 07:17:27;;;;;;;6.47;1.67;;;;;;;17.86;49.80;99159.27;2183046;80;21083;-88
2022/05/15 07:20:28;;;;;;;4.67;1.90;;;;;;;17.80;48.82;99153.50;2172768;80;21119;-87
2022/05/15 07:23:30;;;;;;;5.60;2.00;;;;;;;17.75;49.40;99152.03;2179378;80;21612;-90
2022/05/15 07:26:32;;;;;;;6.80;1.98;;;;;;;17.81;50.43;99149.02;2193563;80;20985;-89
2022/05/15 07:29:36;;;;;;;4.40;1.98;;;;;;;17.86;48.94;99151.32;2134143;83;21560;-89
2022/05/15 07:32:37;;;;;;;5.75;2.27;;;;;;;17.84;49.17;99146.77;2121939;83;21114;-91
2022/05/15 07:35:38;;;;;;;4.30;1.67;;;;;;;17.82;49.63;99143.49;2118337;83;21048;-91
2022/05/15 07:38:42;;;;;;;5.05;2.12;;;;;;;17.84;50.34;99145.44;2026198;87;21151;-90
2022/05/15 07:41:44;;;;;;;7.50;2.15;;;;;;;17.97;51.03;99139.72;2094800;84;21054;-91
2022/05/15 07:44:45;;;;;;;5.60;2.60;;;;;;;18.16;50.49;99137.41;2077902;84;21523;-92
2022/05/15 07:47:47;;;;;;;4.60;2.80;;;;;;;18.28;49.02;99141.47;2073856;84;21161;-90
2022/05/15 07:50:50;;;;;;;4.42;2.55;;;;;;;18.24;48.69;99150.38;2093121;84;21620;-87
2022/05/15 07:53:51;;;;;;;7.67;2.62;;;;;;;18.34;48.41;99148.55;2078179;84;21573;-89
2022/05/15 07:56:53;;;;;;;7.12;2.67;;;;;;;18.42;48.52;99151.73;2081911;85;21041;-89
2022/05/15 07:59:56;;;;;;;3.75;2.30;;;;;;;18.50;48.83;99155.95;2076800;84;21152;-91
2022/05/15 08:02:57;;;;;;;3.92;2.10;;;;;;;18.64;46.57;99137.52;2081301;85;21111;-90
2022/05/15 08:09:19;;;;;;;3.25;1.65;;;;;;;18.94;46.92;99144.26;2093454;84;21104;-88
2022/05/15 08:12:21;;;;;;;5.92;2.00;;;;;;;19.07;43.21;99154.41;2063037;85;21154;-92
2022/05/15 08:15:22;;;;;;;2.92;1.85;;;;;;;18.98;46.22;99150.73;2092448;85;21653;-92
2022/05/15 08:25:10;;;;;;;2.72;1.57;;;;;;;19.13;45.06;99154.84;1844126;95;21180;-87
2022/05/15 08:28:12;;;;;;;3.22;2.27;;;;;;;19.19;46.50;99150.75;1848468;96;21084;-87
2022/05/15 08:31:14;;;;;;;4.47;1.40;;;;;;;19.29;46.23;99152.88;1840471;96;21103;-90
2022/05/15 08:34:18;;;;;;;3.50;1.40;;;;;;;19.35;44.68;99148.52;1850262;92;21064;-89
2022/05/15 08:37:19;;;;;;;2.72;1.22;;;;;;;19.26;44.13;99158.12;1930289;91;21200;-89
2022/05/15 08:40:21;;;;;;;2.83;1.02;;;;;;;19.31;45.18;99152.95;1928589;91;21655;-90
2022/05/15 08:43:22;;;;;;;3.60;1.40;;;;;;;19.42;43.48;99155.36;1926585;91;21180;-91
2022/05/15 08:46:24;;;;;;;3.12;1.62;;;;;;;19.37;41.87;99163.70;1934281;91;21162;-90
2022/05/15 08:49:26;;;;;;;5.05;1.60;;;;;;;19.21;42.62;99158.52;1938384;91;21158;-91
2022/05/15 08:52:30;;;;;;;3.67;1.00;;;;;;;19.17;41.78;99156.00;1930169;91;21241;-91
2022/05/15 08:55:32;;;;;;;4.78;1.42;;;;;;;19.12;39.88;99159.34;1980486;85;21080;-90
2022/05/15 08:58:37;;;;;;;3.08;1.00;;;;;;;18.95;41.95;99159.14;2068307;85;21136;-92
2022/05/15 09:01:38;;;;;;;3.45;1.20;;;;;;;18.99;40.61;99159.49;2068804;85;21067;-92
2022/05/15 09:04:40;;;;;;;2.87;1.02;;;;;;;18.82;41.53;99153.98;2065625;85;21651;-89
2022/05/15 09:07:42;;;;;;;1.47;0.98;;;;;;;18.80;40.28;99165.84;2065955;85;21472;-90
2022/05/15 09:10:44;;;;;;;4.20;1.10;;;;;;;18.84;39.86;99159.09;2063779;85;21138;-89
2022/05/15 09:13:45;;;;;;;3.50;1.35;;;;;;;18.89;40.22;99160.02;2066520;85;21112;-89
2022/05/15 09:16:49;;;;;;;2.37;1.20;;;;;;;18.90;41.92;99151.55;2044259;81;21056;-88
2022/05/15 09:19:50;;;;;;;2.92;0.82;;;;;;;19.09;41.36;99151.81;2177272;80;21043;-87
2022/05/15 09:22:52;;;;;;;2.85;1.00;;;;;;;19.14;39.46;99162.58;2182597;80;21047;-87
2022/05/15 09:25:54;;;;;;;1.65;1.30;;;;;;;18.90;39.87;99164.30;2180989;80;21575;-88
2022/05/15 09:28:57;;;;;;;2.10;1.12;;;;;;;18.85;41.75;99157.53;2181160;80;21024;-88
2022/05/15 09:31:59;;;;;;;1.82;1.05;;;;;;;19.04;40.43;99151.69;2184637;80;21080;-87
2022/05/15 09:35:00;;;;;;;3.10;1.00;;;;;;;19.07;40.50;99170.33;2192321;80;21104;-89
2022/05/15 09:44:42;;;;;;;0.88;0.75;;;;;;;19.15;41.50;99150.12;2188552;80;21122;-89
2022/05/15 09:47:44;;;;;;;2.90;0.90;;;;;;;19.23;39.66;99159.09;2206136;80;21092;-88
2022/05/15 09:50:46;;;;;;;5.37;1.02;;;;;;;19.09;41.17;99166.41;2184637;80;21391;-88
2022/05/15 09:53:48;;;;;;;2.15;0.70;;;;;;;19.27;41.13;99163.72;2181489;80;21105;-87
2022/05/15 09:56:50;;;;;;;0.98;0.62;;;;;;;19.30;39.72;99166.47;2198891;80;21105;-88
2022/05/15 09:59:52;;;;;;;2.30;0.75;;;;;;;19.07;39.26;99181.75;2127216;83;20996;-91
2022/05/15 10:02:54;;;;;;;3.80;1.05;;;;;;;18.71;39.77;99172.77;2114213;83;22311;-90
2022/05/15 10:05:55;;;;;;;3.45;1.07;;;;;;;18.51;40.19;99164.19;2115072;83;21074;-88
2022/05/15 10:08:57;;;;;;;3.17;0.70;;;;;;;18.45;41.09;99175.15;2132839;83;21061;-88
2022/05/15 10:11:59;;;;;;;1.10;0.68;;;;;;;18.28;39.98;99170.11;2140799;82;21116;-88
2022/05/15 10:15:01;;;;;;;2.30;0.90;;;;;;;18.24;41.17;99168.94;2132503;82;21614;-87
2022/05/15 10:18:07;;;;;;;1.77;0.82;;;;;;;18.35;41.13;99177.49;2145739;82;21083;-87
2022/05/15 10:21:06;;;;;;;1.65;0.70;;;;;;;18.44;40.18;99175.38;2138799;82;21110;-88
2022/05/15 10:24:13;;;;;;;4.83;0.93;;;;;;;18.58;39.13;99167.59;2113217;82;21057;-89
2022/05/15 10:27:15;;;;;;;4.22;1.12;;;;;;;18.78;39.20;99168.73;2142363;82;21041;-87
2022/05/15 10:30:18;;;;;;;1.27;0.90;;;;;;;19.00;39.25;99169.08;2147580;82;21048;-88
2022/05/15 10:33:20;;;;;;;3.12;0.70;;;;;;;19.19;39.15;99165.36;2146345;82;21097;-88
2022/05/15 10:36:23;;;;;;;1.17;0.88;;;;;;;19.35;37.39;99175.06;2146546;82;21079;-89
2022/05/15 10:39:25;;;;;;;1.47;0.60;;;;;;;19.14;35.85;99181.16;2113018;83;21108;-88
2022/05/15 10:42:27;;;;;;;2.55;0.98;;;;;;;18.95;37.69;99178.23;2158466;81;21127;-89
2022/05/15 10:45:28;;;;;;;4.10;1.12;;;;;;;18.75;37.97;99166.02;2188294;80;21044;-89
2022/05/15 10:48:30;;;;;;;1.60;0.85;;;;;;;18.70;38.25;99165.84;2187002;80;21029;-90
2022/05/15 10:51:32;;;;;;;3.92;1.32;;;;;;;18.69;39.41;99152.81;2201823;80;21701;-89
2022/05/15 10:57:54;;;;;;;1.57;0.90;;;;;;;19.04;39.76;99154.34;2193458;80;21079;-86
2022/05/15 11:00:56;;;;;;;3.40;0.98;;;;;;;19.13;38.26;99162.81;2188443;80;21036;-88
2022/05/15 11:03:59;;;;;;;7.05;0.88;;;;;;;19.03;37.27;99169.45;2188653;80;21489;-88
2022/05/15 11:07:00;;;;;;;1.30;0.53;;;;;;;18.84;37.75;99157.24;2185273;80;21627;-88
2022/05/15 11:10:02;;;;;;;1.45;0.88;;;;;;;18.78;38.10;99163.42;2184359;80;21554;-88
2022/05/15 11:13:04;;;;;;;1.65;0.78;;;;;;;18.92;38.03;99147.63;2182828;80;21017;-89
2022/05/15 11:16:06;;;;;;;1.27;0.68;;;;;;;19.01;37.48;99152.92;2190968;80;21005;-89
2022/05/15 11:19:09;;;;;;;1.87;0.88;;;;;;;19.15;38.73;99162.87;2180513;80;21076;-89
2022/05/15 11:22:11;;;;;;;1.30;0.80;;;;;;;19.23;37.35;99155.92;2201077;80;21639;-89
2022/05/15 11:25:13;;;;;;;2.80;0.70;;;;;;;19.25;36.88;99156.50;2131309;83;21093;-91
2022/05/15 11:28:15;;;;;;;1.98;0.70;;;;;;;19.18;37.66;99153.13;2148126;82;21051;-90
2022/05/15 11:31:17;;;;;;;2.62;0.70;;;;;;;19.22;36.78;99156.96;2092380;83;21134;-90
2022/05/15 11:34:18;;;;;;;2.67;1.07;;;;;;;19.24;37.81;99142.94;2185757;80;21120;-91
2022/05/15 11:37:20;;;;;;;2.60;1.07;;;;;;;19.44;38.41;99135.21;2132002;83;21089;-90
2022/05/15 11:40:22;;;;;;;1.50;0.80;;;;;;;19.65;38.41;99135.23;2094468;83;21080;-90
2022/05/15 11:43:23;;;;;;;2.22;0.88;;;;;;;19.71;36.21;99139.13;2133071;82;21074;-90
2022/05/15 11:46:25;;;;;;;2.77;0.53;;;;;;;19.49;35.80;99145.98;2139550;82;21034;-90
2022/05/15 11:49:27;;;;;;;2.35;0.62;;;;;;;19.45;36.32;99131.52;2089759;83;21560;-89
2022/05/15 11:52:29;;;;;;;0.60;0.60;;;;;;;19.47;37.03;99132.09;2100058;83;21100;-88
2022/05/15 11:55:30;;;;;;;2.40;1.00;;;;;;;19.59;37.19;99133.80;2108129;83;21081;-87
2022/05/15 11:58:36;;;;;;;2.17;0.72;;;;;;;19.76;37.82;99125.98;2144817;82;21141;-89
2022/05/15 12:01:39;;;;;;;2.37;0.60;;;;;;;19.91;35.00;99136.66;2143084;82;21112;-84
2022/05/15 12:04:41;;;;;;;4.08;1.20;;;;;;;19.72;34.35;99139.93;2135935;82;21132;-89
2022/05/15 12:07:42;;;;;;;1.37;0.90;;;;;;;19.54;34.62;99144.77;2157756;81;21109;-87
2022/05/15 12:10:44;;;;;;;1.25;0.90;;;;;;;19.29;35.53;99151.05;2199550;80;21624;-90
2022/05/15 12:13:46;;;;;;;2.40;1.02;;;;;;;19.14;35.85;99138.69;2180784;80;21662;-89
2022/05/15 12:16:47;;;;;;;2.02;0.80;;;;;;;19.15;35.78;99139.50;2188003;80;21044;-86
2022/05/15 12:19:49;;;;;;;1.82;0.70;;;;;;;19.25;36.88;99129.16;2178946;80;21148;-86
2022/05/15 12:22:53;;;;;;;3.62;0.80;;;;;;;19.36;35.85;99136.34;2131073;83;21077;-87
2022/05/15 12:25:55;;;;;;;1.60;0.50;;;;;;;19.37;36.78;99135.82;2146229;82;21107;-85
2022/05/15 12:28:57;;;;;;;1.47;0.70;;;;;;;19.51;37.35;99117.34;2132867;83;21018;-85
2022/05/15 12:31:59;;;;;;;2.90;0.60;;;;;;;19.69;34.77;99139.06;2138274;81;21069;-87
2022/05/15 12:35:02;;;;;;;2.12;0.80;;;;;;;19.67;33.88;99142.48;2177582;80;21103;-89
2022/05/15 12:38:06;;;;;;;3.17;0.82;;;;;;;19.46;34.22;99135.79;2071060;85;21123;-86
2022/05/15 12:41:07;;;;;;;1.40;0.55;;;;;;;19.26;34.99;99138.73;2072804;85;21179;-89
2022/05/15 12:44:11;;;;;;;2.35;0.70;;;;;;;19.17;35.25;99124.97;2079005;85;21104;-82
2022/05/15 12:47:14;;;;;;;1.55;0.85;;;;;;;19.17;35.59;99122.31;2087483;85;21151;-87
2022/05/15 12:50:15;;;;;;;1.85;0.95;;;;;;;19.36;36.09;99120.41;2078387;85;21112;-86
2022/05/15 12:53:17;;;;;;;0.95;0.47;;;;;;;19.39;34.86;99108.03;2083222;85;21012;-86
2022/05/15 12:56:21;;;;;;;2.75;0.60;;;;;;;19.46;35.56;99112.70;2088489;85;21135;-89
2022/05/15 12:59:24;;;;;;;1.65;0.88;;;;;;;19.53;35.45;99113.41;2083078;85;21146;-89
2022/05/15 13:02:26;;;;;;;2.45;0.85;;;;;;;19.60;35.50;99092.91;2073909;85;21095;-89
2022/05/15 13:05:27;;;;;;;3.65;1.02;;;;;;;19.78;35.47;99096.52;2080848;85;21572;-85
2022/05/15 13:08:29;;;;;;;0.78;0.30;;;;;;;19.92;35.93;99077.16;2082650;85;21104;-86
2022/05/15 13:11:31;;;;;;;10.45;1.07;;;;;;;19.92;34.18;99098.42;2076555;85;21124;-88
2022/05/15 13:14:33;;;;;;;0.78;0.45;;;;;;;19.91;35.07;99103.45;2072234;85;21579;-88
2022/05/15 13:17:36;;;;;;;4.40;1.20;;;;;;;19.95;35.26;99086.83;2076827;85;21146;-87
2022/05/15 13:20:37;;;;;;;1.75;0.50;;;;;;;20.03;34.97;99106.42;2068605;85;21119;-84
2022/05/15 13:23:39;;;;;;;4.28;0.80;;;;;;;20.07;35.32;99094.27;2085723;85;21564;-84
2022/05/15 13:26:41;;;;;;;1.27;0.40;;;;;;;20.12;35.06;99098.38;2078819;85;21151;-84
2022/05/15 13:29:42;;;;;;;2.02;0.70;;;;;;;20.17;34.64;99098.48;2072526;85;21648;-85
2022/05/15 13:32:44;;;;;;;2.75;0.75;;;;;;;20.14;35.82;99086.99;2086985;85;21156;-85
2022/05/15 13:35:46;;;;;;;4.65;0.98;;;;;;;20.19;34.83;99084.95;2186979;80;21577;-89
2022/05/15 13:45:27;;;;;;;5.42;1.80;;;;;;;20.32;33.63;99086.05;2188617;80;21066;-87
2022/05/15 13:48:29;;;;;;;3.42;0.98;;;;;;;20.30;36.05;99093.45;2179049;80;21012;-87
2022/05/15 13:51:31;;;;;;;2.45;1.15;;;;;;;20.30;34.18;99085.97;2188023;80;21097;-86
2022/05/15 13:54:32;;;;;;;3.35;2.35;;;;;;;20.22;35.51;99074.39;2130908;83;21116;-92
2022/05/15 13:57:34;;;;;;;3.45;1.42;;;;;;;20.32;36.39;99078.08;2139089;83;21157;-89
2022/05/15 14:00:36;;;;;;;1.55;0.57;;;;;;;20.45;35.33;99080.50;2188513;81;21073;-88
2022/05/15 14:03:38;;;;;;;5.62;0.98;;;;;;;20.51;34.73;99073.97;2186600;80;21108;-88
2022/05/15 14:06:40;;;;;;;0.72;0.60;;;;;;;20.52;35.83;99062.28;2131860;83;21119;-84
2022/05/15 14:09:41;;;;;;;3.08;0.60;;;;;;;20.47;33.49;99084.77;2126373;83;21546;-85
2022/05/15 14:12:43;;;;;;;3.12;0.68;;;;;;;20.30;32.61;99084.16;2148952;82;21086;-87
2022/05/15 14:15:45;;;;;;;1.72;0.40;;;;;;;20.33;32.60;99090.33;2141795;82;21597;-88
2022/05/15 14:18:47;;;;;;;0.90;0.50;;;;;;;20.25;32.71;99079.23;2161073;82;21585;-85
2022/05/15 14:21:48;;;;;;;2.05;0.50;;;;;;;20.11;33.32;99083.97;2151234;82;21045;-87
2022/05/15 14:24:50;;;;;;;1.15;0.60;;;;;;;20.03;32.91;99073.72;2145358;82;21052;-90
2022/05/15 14:27:52;;;;;;;1.82;0.53;;;;;;;19.94;32.23;99077.24;2156364;82;21090;-91
2022/05/15 14:30:53;;;;;;;2.37;0.78;;;;;;;20.00;32.67;99067.52;2161168;82;21070;-89
2022/05/15 14:33:55;;;;;;;1.75;0.57;;;;;;;20.04;33.15;99061.52;2160614;82;21517;-91
2022/05/15 14:36:57;;;;;;;2.02;0.98;;;;;;;20.10;33.08;99062.42;2160103;82;21025;-90
2022/05/15 14:40:02;;;;;;;1.32;0.75;;;;;;;20.16;32.96;99064.97;2085834;83;21116;-89
2022/05/15 14:43:03;;;;;;;1.75;0.70;;;;;;;20.27;34.05;99062.52;2108760;83;21090;-90
2022/05/15 14:46:06;;;;;;;1.65;0.53;;;;;;;20.33;33.14;99058.41;2137249;82;21227;-88
2022/05/15 14:49:07;;;;;;;4.28;0.75;;;;;;;20.28;32.48;99068.93;2188824;80;21119;-88